NPV7634 MMMX-MZBZ
Flight info
| Callsign | NPV7634 |
|---|---|
| Flight time | 1h 28m |
| Altitude | 33000 |
| Route | ILETO2B ILETO UT109 VER UJ28 DUTKA DCT DASMO DASMO1A |
| Aircraft | B722/M-SDFGHRWY/C |
Departure
| Time | 2026-04-22 09:48 |
|---|---|
| Airport | Mexico City Benito Juárez International Airport (MMMX) |
Arrival
| Time | 2026-04-22 11:16 |
|---|---|
| Airport | Philip S. W. Goldson International Airport (MZBZ) |
| Time | Latitude | Longitude | Altitude | Speed | Heading |
|---|---|---|---|---|---|
| 2026-04-22 09:10 | 19.44190 | -99.07054 | 7324 ft | 0 kts | 329° |
| 2026-04-22 09:30 | 19.44127 | -99.07011 | 7306 ft | 0 kts | 255° |
| 2026-04-22 09:31 | 19.44137 | -99.06979 | 7306 ft | 0 kts | 242° |
| 2026-04-22 09:39 | 19.44136 | -99.06979 | 7306 ft | 2 kts | 242° |
| 2026-04-22 09:39 | 19.44099 | -99.07049 | 7306 ft | 16 kts | 238° |
| 2026-04-22 09:39 | 19.44044 | -99.07142 | 7306 ft | 10 kts | 234° |
| 2026-04-22 09:40 | 19.44024 | -99.07156 | 7306 ft | 2 kts | 173° |
| 2026-04-22 09:40 | 19.44004 | -99.07145 | 7306 ft | 6 kts | 152° |
| 2026-04-22 09:40 | 19.43959 | -99.07154 | 7306 ft | 8 kts | 235° |
| 2026-04-22 09:40 | 19.43919 | -99.07219 | 7306 ft | 13 kts | 237° |
| 2026-04-22 09:41 | 19.43861 | -99.07320 | 7306 ft | 19 kts | 239° |
| 2026-04-22 09:41 | 19.43787 | -99.07454 | 7306 ft | 24 kts | 239° |
| 2026-04-22 09:41 | 19.43701 | -99.07604 | 7306 ft | 23 kts | 239° |
| 2026-04-22 09:41 | 19.43644 | -99.07708 | 7306 ft | 16 kts | 240° |
| 2026-04-22 09:42 | 19.43586 | -99.07811 | 7306 ft | 17 kts | 239° |
| 2026-04-22 09:42 | 19.43521 | -99.07928 | 7306 ft | 20 kts | 238° |
| 2026-04-22 09:42 | 19.43442 | -99.08067 | 7306 ft | 24 kts | 239° |
| 2026-04-22 09:42 | 19.43351 | -99.08230 | 7306 ft | 27 kts | 239° |
| 2026-04-22 09:43 | 19.43248 | -99.08413 | 7306 ft | 31 kts | 239° |
| 2026-04-22 09:43 | 19.43135 | -99.08615 | 7306 ft | 33 kts | 239° |
| 2026-04-22 09:43 | 19.43053 | -99.08771 | 7306 ft | 11 kts | 250° |
| 2026-04-22 09:43 | 19.43010 | -99.08844 | 7306 ft | 14 kts | 237° |
| 2026-04-22 09:44 | 19.42949 | -99.08941 | 7306 ft | 16 kts | 239° |
| 2026-04-22 09:44 | 19.42917 | -99.08999 | 7306 ft | 5 kts | 235° |
| 2026-04-22 09:44 | 19.42897 | -99.09020 | 7306 ft | 6 kts | 218° |
| 2026-04-22 09:44 | 19.42847 | -99.09051 | 7306 ft | 11 kts | 208° |
| 2026-04-22 09:45 | 19.42767 | -99.09080 | 7306 ft | 11 kts | 174° |
| 2026-04-22 09:45 | 19.42710 | -99.09048 | 7306 ft | 11 kts | 112° |
| 2026-04-22 09:45 | 19.42696 | -99.08960 | 7306 ft | 14 kts | 95° |
| 2026-04-22 09:45 | 19.42687 | -99.08842 | 7306 ft | 18 kts | 95° |
| 2026-04-22 09:46 | 19.42685 | -99.08819 | 7306 ft | 1 kts | 93° |
| 2026-04-22 09:46 | 19.42684 | -99.08801 | 7306 ft | 5 kts | 92° |
| 2026-04-22 09:46 | 19.42682 | -99.08747 | 7306 ft | 10 kts | 92° |
| 2026-04-22 09:46 | 19.42677 | -99.08670 | 7307 ft | 10 kts | 94° |
| 2026-04-22 09:47 | 19.42689 | -99.08613 | 7308 ft | 0 kts | 61° |
| 2026-04-22 09:47 | 19.42754 | -99.08486 | 7307 ft | 50 kts | 59° |
| 2026-04-22 09:47 | 19.43048 | -99.07963 | 7308 ft | 114 kts | 60° |
| 2026-04-22 09:48 | 19.43541 | -99.07067 | 7315 ft | 164 kts | 60° |
| 2026-04-22 09:48 | 19.44105 | -99.06007 | 8015 ft | 164 kts | 63° |
| 2026-04-22 09:48 | 19.44680 | -99.04912 | 8725 ft | 178 kts | 59° |
| 2026-04-22 09:48 | 19.45357 | -99.03767 | 9315 ft | 187 kts | 57° |
| 2026-04-22 09:49 | 19.46116 | -99.02620 | 9859 ft | 190 kts | 55° |
| 2026-04-22 09:49 | 19.46850 | -99.01481 | 10586 ft | 189 kts | 57° |
| 2026-04-22 09:49 | 19.47568 | -99.00302 | 11211 ft | 191 kts | 57° |
| 2026-04-22 09:49 | 19.48292 | -98.99090 | 11726 ft | 201 kts | 57° |
| 2026-04-22 09:50 | 19.49064 | -98.97790 | 12080 ft | 218 kts | 57° |
| 2026-04-22 09:50 | 19.49909 | -98.96343 | 12235 ft | 245 kts | 58° |
| 2026-04-22 09:50 | 19.50848 | -98.94656 | 12408 ft | 287 kts | 59° |
| 2026-04-22 09:50 | 19.51912 | -98.92725 | 12994 ft | 306 kts | 59° |
| 2026-04-22 09:51 | 19.52908 | -98.90745 | 14356 ft | 306 kts | 64° |
| 2026-04-22 09:51 | 19.53697 | -98.88610 | 15223 ft | 317 kts | 71° |
| 2026-04-22 09:51 | 19.54293 | -98.86331 | 16134 ft | 324 kts | 74° |
| 2026-04-22 09:51 | 19.54891 | -98.84009 | 17063 ft | 330 kts | 73° |
| 2026-04-22 09:52 | 19.55515 | -98.81638 | 17935 ft | 337 kts | 73° |
| 2026-04-22 09:52 | 19.56159 | -98.79193 | 18546 ft | 353 kts | 74° |
| 2026-04-22 09:52 | 19.56834 | -98.76618 | 18987 ft | 371 kts | 74° |
| 2026-04-22 09:52 | 19.57430 | -98.73898 | 19434 ft | 387 kts | 83° |
| 2026-04-22 09:53 | 19.57193 | -98.71061 | 19907 ft | 402 kts | 108° |
| 2026-04-22 09:53 | 19.56043 | -98.68339 | 20656 ft | 407 kts | 117° |
| 2026-04-22 09:53 | 19.54706 | -98.65664 | 21394 ft | 413 kts | 118° |
| 2026-04-22 09:53 | 19.53375 | -98.62942 | 22138 ft | 418 kts | 117° |
| 2026-04-22 09:54 | 19.52092 | -98.60159 | 22898 ft | 422 kts | 116° |
| 2026-04-22 09:54 | 19.50830 | -98.57339 | 23676 ft | 425 kts | 115° |
| 2026-04-22 09:54 | 19.49571 | -98.54495 | 24348 ft | 427 kts | 115° |
| 2026-04-22 09:54 | 19.48310 | -98.51636 | 25012 ft | 428 kts | 115° |
| 2026-04-22 09:55 | 19.47050 | -98.48774 | 25711 ft | 429 kts | 115° |
| 2026-04-22 09:55 | 19.45787 | -98.45907 | 26421 ft | 428 kts | 115° |
| 2026-04-22 09:55 | 19.44529 | -98.43051 | 27193 ft | 427 kts | 115° |
| 2026-04-22 09:55 | 19.43253 | -98.40159 | 27516 ft | 439 kts | 115° |
| 2026-04-22 09:56 | 19.41945 | -98.37196 | 27824 ft | 448 kts | 115° |
| 2026-04-22 09:56 | 19.40610 | -98.34175 | 28138 ft | 457 kts | 115° |
| 2026-04-22 09:56 | 19.39264 | -98.31133 | 28458 ft | 466 kts | 115° |
| 2026-04-22 09:56 | 19.37875 | -98.27995 | 28774 ft | 474 kts | 115° |
| 2026-04-22 09:57 | 19.36463 | -98.24808 | 29094 ft | 481 kts | 115° |
| 2026-04-22 09:57 | 19.35031 | -98.21575 | 29397 ft | 488 kts | 115° |
| 2026-04-22 09:57 | 19.33582 | -98.18304 | 29720 ft | 494 kts | 115° |
| 2026-04-22 09:57 | 19.32116 | -98.15000 | 30033 ft | 499 kts | 116° |
| 2026-04-22 09:58 | 19.30629 | -98.11652 | 30348 ft | 504 kts | 116° |
| 2026-04-22 09:58 | 19.29131 | -98.08280 | 30612 ft | 509 kts | 116° |
| 2026-04-22 09:58 | 19.27755 | -98.04814 | 30858 ft | 514 kts | 110° |
| 2026-04-22 09:58 | 19.26734 | -98.01172 | 31100 ft | 518 kts | 104° |
| 2026-04-22 09:59 | 19.26109 | -97.97410 | 31356 ft | 521 kts | 96° |
| 2026-04-22 09:59 | 19.25947 | -97.93570 | 31631 ft | 524 kts | 93° |
| 2026-04-22 09:59 | 19.25742 | -97.89714 | 31926 ft | 526 kts | 95° |
| 2026-04-22 09:59 | 19.25468 | -97.85839 | 32215 ft | 526 kts | 95° |
| 2026-04-22 10:00 | 19.25183 | -97.81980 | 32515 ft | 526 kts | 95° |
| 2026-04-22 10:00 | 19.24907 | -97.78123 | 32799 ft | 525 kts | 95° |
| 2026-04-22 10:00 | 19.24645 | -97.74341 | 33069 ft | 518 kts | 95° |
| 2026-04-22 10:00 | 19.24392 | -97.70569 | 33110 ft | 507 kts | 95° |
| 2026-04-22 10:01 | 19.24156 | -97.66892 | 33127 ft | 495 kts | 95° |
| 2026-04-22 10:01 | 19.23931 | -97.63288 | 33131 ft | 485 kts | 95° |
| 2026-04-22 10:01 | 19.23499 | -97.56287 | 33136 ft | 469 kts | 95° |
| 2026-04-22 10:02 | 19.23058 | -97.49319 | 33136 ft | 484 kts | 95° |
| 2026-04-22 10:02 | 19.22591 | -97.42111 | 33149 ft | 502 kts | 95° |
| 2026-04-22 10:03 | 19.22109 | -97.34687 | 33150 ft | 502 kts | 95° |
| 2026-04-22 10:03 | 19.21633 | -97.27365 | 33136 ft | 502 kts | 95° |
| 2026-04-22 10:04 | 19.21152 | -97.20000 | 33125 ft | 501 kts | 95° |
| 2026-04-22 10:04 | 19.20670 | -97.12625 | 33104 ft | 502 kts | 95° |
| 2026-04-22 10:05 | 19.20184 | -97.05254 | 33107 ft | 502 kts | 95° |
| 2026-04-22 10:05 | 19.19695 | -96.97888 | 33074 ft | 502 kts | 95° |
| 2026-04-22 10:06 | 19.19204 | -96.90519 | 33072 ft | 502 kts | 95° |
| 2026-04-22 10:06 | 19.18709 | -96.83156 | 33044 ft | 502 kts | 95° |
| 2026-04-22 10:07 | 19.18210 | -96.75781 | 33044 ft | 502 kts | 95° |
| 2026-04-22 10:07 | 19.17713 | -96.68458 | 33027 ft | 502 kts | 95° |
| 2026-04-22 10:08 | 19.17210 | -96.61093 | 33024 ft | 502 kts | 95° |
| 2026-04-22 10:08 | 19.16703 | -96.53723 | 33010 ft | 502 kts | 95° |
| 2026-04-22 10:09 | 19.16192 | -96.46344 | 33012 ft | 502 kts | 95° |
| 2026-04-22 10:09 | 19.15676 | -96.38932 | 33003 ft | 506 kts | 95° |
| 2026-04-22 10:10 | 19.15157 | -96.31515 | 33001 ft | 505 kts | 95° |
| 2026-04-22 10:10 | 19.14635 | -96.24104 | 33002 ft | 505 kts | 95° |
| 2026-04-22 10:11 | 19.14101 | -96.16687 | 33003 ft | 505 kts | 96° |
| 2026-04-22 10:11 | 19.13379 | -96.09296 | 33003 ft | 505 kts | 97° |
| 2026-04-22 10:12 | 19.12604 | -96.01931 | 33005 ft | 507 kts | 97° |
| 2026-04-22 10:12 | 19.11838 | -95.94506 | 33003 ft | 507 kts | 97° |
| 2026-04-22 10:13 | 19.11083 | -95.87090 | 33000 ft | 507 kts | 97° |
| 2026-04-22 10:13 | 19.10330 | -95.79667 | 33001 ft | 507 kts | 97° |
| 2026-04-22 10:14 | 19.09579 | -95.72287 | 33003 ft | 507 kts | 97° |
| 2026-04-22 10:14 | 19.08824 | -95.64872 | 33003 ft | 507 kts | 97° |
| 2026-04-22 10:15 | 19.08067 | -95.57463 | 33003 ft | 507 kts | 97° |
| 2026-04-22 10:15 | 19.07305 | -95.50043 | 33003 ft | 507 kts | 97° |
| 2026-04-22 10:16 | 19.06541 | -95.42631 | 33001 ft | 507 kts | 97° |
| 2026-04-22 10:16 | 19.05774 | -95.35218 | 33001 ft | 507 kts | 97° |
| 2026-04-22 10:17 | 19.05004 | -95.27799 | 32999 ft | 508 kts | 97° |
| 2026-04-22 10:17 | 19.04230 | -95.20377 | 32998 ft | 505 kts | 97° |
| 2026-04-22 10:18 | 19.03459 | -95.13011 | 32999 ft | 505 kts | 97° |
| 2026-04-22 10:18 | 19.02687 | -95.05682 | 33001 ft | 505 kts | 97° |
| 2026-04-22 10:19 | 19.01905 | -94.98293 | 33001 ft | 505 kts | 97° |
| 2026-04-22 10:19 | 19.01122 | -94.90912 | 33002 ft | 505 kts | 98° |
| 2026-04-22 10:20 | 19.00335 | -94.83529 | 33004 ft | 505 kts | 98° |
| 2026-04-22 10:20 | 18.99546 | -94.76159 | 33004 ft | 505 kts | 98° |
| 2026-04-22 10:21 | 18.98759 | -94.68832 | 33007 ft | 505 kts | 98° |
| 2026-04-22 10:21 | 18.97964 | -94.61453 | 33007 ft | 505 kts | 98° |
| 2026-04-22 10:22 | 18.97166 | -94.54077 | 33005 ft | 508 kts | 98° |
| 2026-04-22 10:22 | 18.96496 | -94.47911 | 33007 ft | 507 kts | 98° |
| 2026-04-22 10:23 | 18.95690 | -94.40509 | 33007 ft | 507 kts | 98° |
| 2026-04-22 10:23 | 18.94881 | -94.33110 | 33007 ft | 507 kts | 98° |
| 2026-04-22 10:24 | 18.94068 | -94.25708 | 33006 ft | 507 kts | 98° |
| 2026-04-22 10:24 | 18.93253 | -94.18306 | 33008 ft | 507 kts | 98° |
| 2026-04-22 10:25 | 18.92438 | -94.10948 | 33007 ft | 507 kts | 98° |
| 2026-04-22 10:25 | 18.91616 | -94.03536 | 33007 ft | 507 kts | 98° |
| 2026-04-22 10:26 | 18.90791 | -93.96132 | 33007 ft | 507 kts | 98° |
| 2026-04-22 10:26 | 18.89964 | -93.88734 | 33007 ft | 507 kts | 98° |
| 2026-04-22 10:27 | 18.89133 | -93.81327 | 33002 ft | 507 kts | 98° |
| 2026-04-22 10:27 | 18.88298 | -93.73919 | 33007 ft | 508 kts | 98° |
| 2026-04-22 10:28 | 18.87466 | -93.66554 | 33009 ft | 508 kts | 98° |
| 2026-04-22 10:28 | 18.86626 | -93.59143 | 33009 ft | 508 kts | 98° |
| 2026-04-22 10:29 | 18.85782 | -93.51731 | 33008 ft | 508 kts | 98° |
| 2026-04-22 10:29 | 18.84935 | -93.44319 | 33004 ft | 508 kts | 98° |
| 2026-04-22 10:30 | 18.84086 | -93.36917 | 33007 ft | 508 kts | 98° |
| 2026-04-22 10:30 | 18.83243 | -93.29512 | 33006 ft | 508 kts | 98° |
| 2026-04-22 10:31 | 18.82424 | -93.22094 | 33008 ft | 508 kts | 97° |
| 2026-04-22 10:31 | 18.81609 | -93.14729 | 33002 ft | 508 kts | 98° |
| 2026-04-22 10:32 | 18.80783 | -93.07321 | 33001 ft | 508 kts | 98° |
| 2026-04-22 10:32 | 18.79952 | -92.99903 | 33002 ft | 510 kts | 98° |
| 2026-04-22 10:33 | 18.79115 | -92.92471 | 33002 ft | 510 kts | 98° |
| 2026-04-22 10:33 | 18.78275 | -92.85041 | 32998 ft | 510 kts | 98° |
| 2026-04-22 10:34 | 18.77433 | -92.77612 | 33001 ft | 510 kts | 98° |
| 2026-04-22 10:34 | 18.76587 | -92.70181 | 33001 ft | 510 kts | 98° |
| 2026-04-22 10:35 | 18.75738 | -92.62745 | 32996 ft | 508 kts | 98° |
| 2026-04-22 10:35 | 18.74896 | -92.55396 | 32999 ft | 507 kts | 98° |
| 2026-04-22 10:36 | 18.74045 | -92.48003 | 33001 ft | 508 kts | 98° |
| 2026-04-22 10:36 | 18.73191 | -92.40605 | 33001 ft | 508 kts | 98° |
| 2026-04-22 10:37 | 18.71904 | -92.29508 | 32999 ft | 508 kts | 98° |
| 2026-04-22 10:38 | 18.71041 | -92.22105 | 33001 ft | 508 kts | 98° |
| 2026-04-22 10:38 | 18.70153 | -92.14710 | 32999 ft | 508 kts | 98° |
| 2026-04-22 10:39 | 18.69259 | -92.07349 | 32997 ft | 508 kts | 98° |
| 2026-04-22 10:39 | 18.68361 | -91.99958 | 32999 ft | 508 kts | 98° |
| 2026-04-22 10:40 | 18.67462 | -91.92564 | 33001 ft | 508 kts | 98° |
| 2026-04-22 10:40 | 18.66568 | -91.85161 | 32998 ft | 509 kts | 98° |
| 2026-04-22 10:41 | 18.65929 | -91.77717 | 32998 ft | 510 kts | 95° |
| 2026-04-22 10:41 | 18.65623 | -91.70292 | 33000 ft | 510 kts | 93° |
| 2026-04-22 10:42 | 18.65364 | -91.62825 | 33002 ft | 510 kts | 93° |
| 2026-04-22 10:42 | 18.65099 | -91.55349 | 33002 ft | 510 kts | 93° |
| 2026-04-22 10:43 | 18.64828 | -91.47868 | 33005 ft | 511 kts | 93° |
| 2026-04-22 10:43 | 18.64504 | -91.40389 | 33009 ft | 510 kts | 96° |
| 2026-04-22 10:44 | 18.63536 | -91.32978 | 33013 ft | 510 kts | 103° |
| 2026-04-22 10:44 | 18.61920 | -91.25706 | 33008 ft | 509 kts | 105° |
| 2026-04-22 10:45 | 18.60231 | -91.18501 | 33004 ft | 509 kts | 105° |
| 2026-04-22 10:45 | 18.58535 | -91.11254 | 33004 ft | 510 kts | 105° |
| 2026-04-22 10:46 | 18.56835 | -91.03992 | 33009 ft | 510 kts | 105° |
| 2026-04-22 10:46 | 18.55136 | -90.96740 | 33011 ft | 510 kts | 105° |
| 2026-04-22 10:47 | 18.53434 | -90.89485 | 33019 ft | 510 kts | 105° |
| 2026-04-22 10:47 | 18.51730 | -90.82238 | 33018 ft | 510 kts | 105° |
| 2026-04-22 10:48 | 18.50033 | -90.75031 | 33020 ft | 510 kts | 105° |
| 2026-04-22 10:48 | 18.48323 | -90.67781 | 33017 ft | 510 kts | 105° |
| 2026-04-22 10:49 | 18.46610 | -90.60534 | 33020 ft | 510 kts | 105° |
| 2026-04-22 10:49 | 18.44892 | -90.53277 | 33023 ft | 510 kts | 105° |
| 2026-04-22 10:50 | 18.43173 | -90.46031 | 33024 ft | 510 kts | 105° |
| 2026-04-22 10:50 | 18.41454 | -90.38794 | 33021 ft | 508 kts | 106° |
| 2026-04-22 10:51 | 18.39743 | -90.31606 | 33027 ft | 509 kts | 106° |
| 2026-04-22 10:51 | 18.38020 | -90.24382 | 33032 ft | 509 kts | 106° |
| 2026-04-22 10:52 | 18.36293 | -90.17149 | 33033 ft | 509 kts | 106° |
| 2026-04-22 10:52 | 18.34563 | -90.09920 | 33039 ft | 509 kts | 106° |
| 2026-04-22 10:53 | 18.32830 | -90.02692 | 33037 ft | 509 kts | 106° |
| 2026-04-22 10:53 | 18.31096 | -89.95471 | 33043 ft | 509 kts | 107° |
| 2026-04-22 10:54 | 18.29360 | -89.88258 | 33041 ft | 509 kts | 107° |
| 2026-04-22 10:54 | 18.27619 | -89.81038 | 33042 ft | 509 kts | 107° |
| 2026-04-22 10:55 | 18.25885 | -89.73862 | 32764 ft | 510 kts | 107° |
| 2026-04-22 10:55 | 18.25017 | -89.70267 | 32350 ft | 504 kts | 107° |
| 2026-04-22 10:55 | 18.24156 | -89.66705 | 31869 ft | 500 kts | 107° |
| 2026-04-22 10:55 | 18.23303 | -89.63178 | 31345 ft | 495 kts | 107° |
| 2026-04-22 10:56 | 18.22454 | -89.59678 | 30829 ft | 491 kts | 107° |
| 2026-04-22 10:56 | 18.21611 | -89.56204 | 30320 ft | 487 kts | 107° |
| 2026-04-22 10:56 | 18.20775 | -89.52760 | 29766 ft | 483 kts | 107° |
| 2026-04-22 10:56 | 18.19948 | -89.49359 | 29176 ft | 477 kts | 107° |
| 2026-04-22 10:57 | 18.19130 | -89.45995 | 28607 ft | 472 kts | 106° |
| 2026-04-22 10:57 | 18.18319 | -89.42664 | 28045 ft | 467 kts | 106° |
| 2026-04-22 10:57 | 18.17527 | -89.39414 | 27503 ft | 463 kts | 106° |
| 2026-04-22 10:57 | 18.16731 | -89.36155 | 26962 ft | 458 kts | 106° |
| 2026-04-22 10:58 | 18.15944 | -89.32932 | 26431 ft | 453 kts | 106° |
| 2026-04-22 10:58 | 18.15163 | -89.29736 | 25908 ft | 449 kts | 105° |
| 2026-04-22 10:58 | 18.14390 | -89.26574 | 25394 ft | 444 kts | 105° |
| 2026-04-22 10:58 | 18.13623 | -89.23441 | 24898 ft | 440 kts | 105° |
| 2026-04-22 10:59 | 18.12862 | -89.20336 | 24405 ft | 437 kts | 105° |
| 2026-04-22 10:59 | 18.12106 | -89.17254 | 23917 ft | 433 kts | 105° |
| 2026-04-22 10:59 | 18.11358 | -89.14203 | 23401 ft | 429 kts | 105° |
| 2026-04-22 10:59 | 18.10617 | -89.11181 | 22829 ft | 425 kts | 105° |
| 2026-04-22 11:00 | 18.09879 | -89.08178 | 22263 ft | 422 kts | 105° |
| 2026-04-22 11:00 | 18.09148 | -89.05201 | 21712 ft | 418 kts | 104° |
| 2026-04-22 11:00 | 18.08422 | -89.02250 | 21176 ft | 415 kts | 104° |
| 2026-04-22 11:00 | 18.07703 | -88.99327 | 20639 ft | 412 kts | 104° |
| 2026-04-22 11:01 | 18.06987 | -88.96421 | 20122 ft | 408 kts | 104° |
| 2026-04-22 11:01 | 18.06280 | -88.93551 | 19615 ft | 405 kts | 104° |
| 2026-04-22 11:01 | 18.05576 | -88.90693 | 19106 ft | 402 kts | 104° |
| 2026-04-22 11:01 | 18.04878 | -88.87863 | 18611 ft | 399 kts | 104° |
| 2026-04-22 11:02 | 18.04183 | -88.85049 | 18090 ft | 396 kts | 104° |
| 2026-04-22 11:02 | 18.03493 | -88.82259 | 17532 ft | 392 kts | 104° |
| 2026-04-22 11:02 | 18.02793 | -88.79507 | 16985 ft | 388 kts | 107° |
| 2026-04-22 11:02 | 18.01665 | -88.76997 | 16454 ft | 385 kts | 124° |
| 2026-04-22 11:03 | 17.99860 | -88.74970 | 15935 ft | 373 kts | 142° |
| 2026-04-22 11:03 | 17.97825 | -88.73367 | 15421 ft | 359 kts | 143° |
| 2026-04-22 11:03 | 17.95856 | -88.71824 | 14900 ft | 347 kts | 143° |
| 2026-04-22 11:03 | 17.93949 | -88.70321 | 14393 ft | 338 kts | 143° |
| 2026-04-22 11:04 | 17.92090 | -88.68852 | 13893 ft | 331 kts | 143° |
| 2026-04-22 11:04 | 17.90270 | -88.67412 | 13335 ft | 325 kts | 143° |
| 2026-04-22 11:04 | 17.88469 | -88.65988 | 12774 ft | 322 kts | 143° |
| 2026-04-22 11:04 | 17.86687 | -88.64581 | 12223 ft | 319 kts | 143° |
| 2026-04-22 11:05 | 17.84924 | -88.63188 | 11688 ft | 316 kts | 143° |
| 2026-04-22 11:05 | 17.83178 | -88.61810 | 11158 ft | 313 kts | 143° |
| 2026-04-22 11:05 | 17.81465 | -88.60459 | 10645 ft | 310 kts | 143° |
| 2026-04-22 11:05 | 17.79741 | -88.59099 | 10135 ft | 308 kts | 143° |
| 2026-04-22 11:06 | 17.78036 | -88.57755 | 9591 ft | 305 kts | 143° |
| 2026-04-22 11:06 | 17.76343 | -88.56420 | 9046 ft | 302 kts | 143° |
| 2026-04-22 11:06 | 17.74633 | -88.55176 | 8496 ft | 298 kts | 152° |
| 2026-04-22 11:06 | 17.72670 | -88.54562 | 7960 ft | 295 kts | 176° |
| 2026-04-22 11:07 | 17.70637 | -88.54620 | 7530 ft | 288 kts | 181° |
| 2026-04-22 11:07 | 17.68677 | -88.54581 | 7303 ft | 276 kts | 177° |
| 2026-04-22 11:07 | 17.66788 | -88.54489 | 7070 ft | 267 kts | 177° |
| 2026-04-22 11:07 | 17.64957 | -88.54405 | 6824 ft | 259 kts | 177° |
| 2026-04-22 11:08 | 17.63196 | -88.54336 | 6585 ft | 253 kts | 177° |
| 2026-04-22 11:08 | 17.61461 | -88.54278 | 6263 ft | 245 kts | 177° |
| 2026-04-22 11:08 | 17.59769 | -88.54227 | 5366 ft | 238 kts | 177° |
| 2026-04-22 11:08 | 17.58179 | -88.54177 | 5040 ft | 218 kts | 175° |
| 2026-04-22 11:09 | 17.56684 | -88.53992 | 5019 ft | 216 kts | 166° |
| 2026-04-22 11:09 | 17.55218 | -88.53619 | 5019 ft | 217 kts | 165° |
| 2026-04-22 11:09 | 17.53732 | -88.53261 | 4644 ft | 222 kts | 165° |
| 2026-04-22 11:09 | 17.52163 | -88.52905 | 3407 ft | 236 kts | 166° |
| 2026-04-22 11:10 | 17.50595 | -88.52576 | 3071 ft | 213 kts | 167° |
| 2026-04-22 11:10 | 17.49626 | -88.52387 | 2654 ft | 216 kts | 168° |
| 2026-04-22 11:10 | 17.47850 | -88.51736 | 2512 ft | 203 kts | 136° |
| 2026-04-22 11:10 | 17.47268 | -88.50450 | 2468 ft | 191 kts | 92° |
| 2026-04-22 11:11 | 17.47683 | -88.49268 | 2458 ft | 167 kts | 48° |
| 2026-04-22 11:11 | 17.48297 | -88.48789 | 2477 ft | 162 kts | 34° |
| 2026-04-22 11:11 | 17.49239 | -88.48172 | 2495 ft | 162 kts | 40° |
| 2026-04-22 11:11 | 17.49983 | -88.47309 | 2504 ft | 160 kts | 60° |
| 2026-04-22 11:12 | 17.50433 | -88.46264 | 2505 ft | 150 kts | 73° |
| 2026-04-22 11:12 | 17.50691 | -88.45301 | 2477 ft | 130 kts | 77° |
| 2026-04-22 11:12 | 17.50904 | -88.44393 | 2484 ft | 127 kts | 77° |
| 2026-04-22 11:12 | 17.51111 | -88.43487 | 2502 ft | 129 kts | 78° |
| 2026-04-22 11:13 | 17.51313 | -88.42575 | 2502 ft | 129 kts | 78° |
| 2026-04-22 11:13 | 17.51517 | -88.41642 | 2268 ft | 134 kts | 78° |
| 2026-04-22 11:13 | 17.51696 | -88.40715 | 2026 ft | 129 kts | 79° |
| 2026-04-22 11:13 | 17.51908 | -88.39806 | 1720 ft | 129 kts | 76° |
| 2026-04-22 11:14 | 17.52124 | -88.38906 | 1392 ft | 121 kts | 77° |
| 2026-04-22 11:14 | 17.52314 | -88.38062 | 1145 ft | 118 kts | 77° |
| 2026-04-22 11:14 | 17.52511 | -88.37226 | 914 ft | 118 kts | 76° |
| 2026-04-22 11:14 | 17.52698 | -88.36391 | 682 ft | 119 kts | 78° |
| 2026-04-22 11:15 | 17.52867 | -88.35550 | 534 ft | 116 kts | 78° |
| 2026-04-22 11:15 | 17.53038 | -88.34719 | 483 ft | 116 kts | 77° |
| 2026-04-22 11:15 | 17.53221 | -88.33895 | 504 ft | 119 kts | 77° |
| 2026-04-22 11:15 | 17.53447 | -88.32963 | 355 ft | 127 kts | 78° |
| 2026-04-22 11:16 | 17.53620 | -88.32139 | 135 ft | 108 kts | 77° |
| 2026-04-22 11:16 | 17.53781 | -88.31405 | 36 ft | 85 kts | 77° |
| 2026-04-22 11:16 | 17.53856 | -88.31063 | 36 ft | 25 kts | 77° |
| 2026-04-22 11:16 | 17.53878 | -88.30958 | 38 ft | 15 kts | 78° |
| 2026-04-22 11:17 | 17.53882 | -88.30889 | 38 ft | 6 kts | 134° |
| 2026-04-22 11:17 | 17.53828 | -88.30871 | 38 ft | 11 kts | 166° |
| 2026-04-22 11:17 | 17.53789 | -88.30860 | 39 ft | 5 kts | 165° |
| 2026-04-22 11:17 | 17.53778 | -88.30857 | 39 ft | 0 kts | 166° |
| 2026-04-22 11:18 | 17.53774 | -88.30856 | 39 ft | 0 kts | 166° |
| 2026-04-22 11:18 | 17.53772 | -88.30856 | 39 ft | 2 kts | 166° |
| 2026-04-22 11:18 | 17.53739 | -88.30854 | 39 ft | 7 kts | 201° |
| 2026-04-22 11:19 | 17.53716 | -88.30894 | 37 ft | 9 kts | 253° |
| 2026-04-22 11:19 | 17.53698 | -88.30967 | 39 ft | 3 kts | 220° |
| 2026-04-22 11:19 | 17.53677 | -88.30969 | 39 ft | 1 kts | 162° |
| 2026-04-22 11:19 | 17.53658 | -88.30964 | 39 ft | 0 kts | 166° |
| 2026-04-22 11:20 | 17.53649 | -88.30961 | 39 ft | 1 kts | 166° |
| 2026-04-22 11:20 | 17.53641 | -88.30959 | 37 ft | 1 kts | 165° |
| 2026-04-22 11:20 | 17.53635 | -88.30957 | 36 ft | 2 kts | 165° |
| 2026-04-22 11:20 | 17.53638 | -88.30958 | 38 ft | 3 kts | 166° |
| 2026-04-22 11:21 | 17.53642 | -88.30959 | 37 ft | 0 kts | 165° |